sensor_id;sensor_type;location;lat;lon;timestamp;pressure;altitude;pressure_sealevel;temperature;humidity
32761;BME280;19126;47.472;7.850;2022-11-20T00:01:37;96286.88;;;3.26;53.98
32761;BME280;19126;47.472;7.850;2022-11-20T00:04:05;96286.47;;;3.21;54.10
32761;BME280;19126;47.472;7.850;2022-11-20T00:06:33;96288.38;;;3.19;53.73
32761;BME280;19126;47.472;7.850;2022-11-20T00:09:00;96287.97;;;3.14;52.85
32761;BME280;19126;47.472;7.850;2022-11-20T00:11:29;96290.84;;;3.11;52.92
32761;BME280;19126;47.472;7.850;2022-11-20T00:14:00;96303.81;;;3.11;51.77
32761;BME280;19126;47.472;7.850;2022-11-20T00:16:31;96307.50;;;3.08;50.90
32761;BME280;19126;47.472;7.850;2022-11-20T00:18:58;96298.91;;;3.07;50.69
32761;BME280;19126;47.472;7.850;2022-11-20T00:21:27;96304.88;;;3.08;48.83
32761;BME280;19126;47.472;7.850;2022-11-20T00:23:57;96305.56;;;3.10;47.79
32761;BME280;19126;47.472;7.850;2022-11-20T00:26:26;96306.13;;;3.14;46.05
32761;BME280;19126;47.472;7.850;2022-11-20T00:28:56;96300.13;;;3.13;44.73
32761;BME280;19126;47.472;7.850;2022-11-20T00:31:23;96299.03;;;3.16;43.94
32761;BME280;19126;47.472;7.850;2022-11-20T00:33:51;96299.03;;;3.16;42.68
32761;BME280;19126;47.472;7.850;2022-11-20T00:36:21;96293.16;;;3.14;42.67
32761;BME280;19126;47.472;7.850;2022-11-20T00:38:51;96304.50;;;3.13;41.31
32761;BME280;19126;47.472;7.850;2022-11-20T00:41:21;96303.94;;;3.09;41.90
32761;BME280;19126;47.472;7.850;2022-11-20T00:43:49;96304.09;;;3.07;41.44
32761;BME280;19126;47.472;7.850;2022-11-20T00:46:20;96302.28;;;3.08;40.80
32761;BME280;19126;47.472;7.850;2022-11-20T00:48:48;96305.16;;;3.05;40.09
32761;BME280;19126;47.472;7.850;2022-11-20T00:51:17;96306.25;;;3.02;40.07
32761;BME280;19126;47.472;7.850;2022-11-20T00:53:45;96310.09;;;2.98;39.79
32761;BME280;19126;47.472;7.850;2022-11-20T00:56:16;96311.03;;;2.97;40.03
32761;BME280;19126;47.472;7.850;2022-11-20T00:58:46;96311.84;;;2.98;38.77
32761;BME280;19126;47.472;7.850;2022-11-20T01:01:16;96315.66;;;2.93;39.13
32761;BME280;19126;47.472;7.850;2022-11-20T01:03:45;96320.31;;;2.90;38.38
32761;BME280;19126;47.472;7.850;2022-11-20T01:06:18;96321.53;;;2.86;38.66
32761;BME280;19126;47.472;7.850;2022-11-20T01:08:47;96328.75;;;2.82;38.92
32761;BME280;19126;47.472;7.850;2022-11-20T01:11:18;96327.53;;;2.76;38.69
32761;BME280;19126;47.472;7.850;2022-11-20T01:13:48;96326.25;;;2.71;40.13
32761;BME280;19126;47.472;7.850;2022-11-20T01:16:18;96323.25;;;2.66;39.61
32761;BME280;19126;47.472;7.850;2022-11-20T01:18:47;96323.50;;;2.62;40.28
32761;BME280;19126;47.472;7.850;2022-11-20T01:21:17;96327.44;;;2.57;41.28
32761;BME280;19126;47.472;7.850;2022-11-20T01:23:46;96320.88;;;2.53;40.96
32761;BME280;19126;47.472;7.850;2022-11-20T01:26:17;96330.44;;;2.52;41.78
32761;BME280;19126;47.472;7.850;2022-11-20T01:28:46;96331.13;;;2.54;41.20
32761;BME280;19126;47.472;7.850;2022-11-20T01:31:17;96342.69;;;2.50;42.32
32761;BME280;19126;47.472;7.850;2022-11-20T01:33:47;96333.53;;;2.46;42.31
32761;BME280;19126;47.472;7.850;2022-11-20T01:36:16;96335.81;;;2.39;42.64
32761;BME280;19126;47.472;7.850;2022-11-20T01:38:44;96350.94;;;2.34;43.59
32761;BME280;19126;47.472;7.850;2022-11-20T01:41:13;96334.97;;;2.29;43.20
32761;BME280;19126;47.472;7.850;2022-11-20T01:44:04;96346.41;;;2.26;43.56
32761;BME280;19126;47.472;7.850;2022-11-20T01:46:31;96340.66;;;2.23;43.72
32761;BME280;19126;47.472;7.850;2022-11-20T01:49:02;96335.63;;;2.21;43.74
32761;BME280;19126;47.472;7.850;2022-11-20T01:51:35;96343.25;;;2.23;42.08
32761;BME280;19126;47.472;7.850;2022-11-20T01:54:09;96329.59;;;2.20;41.93
32761;BME280;19126;47.472;7.850;2022-11-20T01:56:41;96336.56;;;2.20;41.57
32761;BME280;19126;47.472;7.850;2022-11-20T01:59:13;96332.44;;;2.17;41.05
32761;BME280;19126;47.472;7.850;2022-11-20T02:01:42;96337.63;;;2.17;40.20
32761;BME280;19126;47.472;7.850;2022-11-20T02:04:10;96341.44;;;2.13;39.40
32761;BME280;19126;47.472;7.850;2022-11-20T02:06:44;96336.41;;;2.12;39.30
32761;BME280;19126;47.472;7.850;2022-11-20T02:09:13;96341.44;;;2.13;38.69
32761;BME280;19126;47.472;7.850;2022-11-20T02:11:41;96339.78;;;2.12;37.64
32761;BME280;19126;47.472;7.850;2022-11-20T02:14:10;96343.59;;;2.08;37.40
32761;BME280;19126;47.472;7.850;2022-11-20T02:16:40;96338.66;;;2.05;36.89
32761;BME280;19126;47.472;7.850;2022-11-20T02:19:20;96336.91;;;2.05;36.58
32761;BME280;19126;47.472;7.850;2022-11-20T02:21:57;96345.19;;;1.99;36.58
32761;BME280;19126;47.472;7.850;2022-11-20T02:24:28;96336.56;;;1.99;35.92
32761;BME280;19126;47.472;7.850;2022-11-20T02:27:00;96333.72;;;2.02;34.53
32761;BME280;19126;47.472;7.850;2022-11-20T02:29:36;96335.53;;;2.01;33.91
32761;BME280;19126;47.472;7.850;2022-11-20T02:32:05;96331.41;;;1.99;32.75
32761;BME280;19126;47.472;7.850;2022-11-20T02:34:32;96335.38;;;2.03;32.76
32761;BME280;19126;47.472;7.850;2022-11-20T02:37:00;96328.28;;;2.05;31.48
32761;BME280;19126;47.472;7.850;2022-11-20T02:39:28;96332.00;;;2.12;31.22
32761;BME280;19126;47.472;7.850;2022-11-20T02:41:56;96325.63;;;2.16;29.73
32761;BME280;19126;47.472;7.850;2022-11-20T02:44:24;96334.94;;;2.19;28.56
32761;BME280;19126;47.472;7.850;2022-11-20T02:46:51;96328.66;;;2.22;28.48
32761;BME280;19126;47.472;7.850;2022-11-20T02:49:18;96327.00;;;2.20;27.23
32761;BME280;19126;47.472;7.850;2022-11-20T02:51:46;96331.94;;;2.24;26.68
32761;BME280;19126;47.472;7.850;2022-11-20T02:54:13;96332.34;;;2.19;26.91
32761;BME280;19126;47.472;7.850;2022-11-20T02:56:42;96332.19;;;2.20;26.09
32761;BME280;19126;47.472;7.850;2022-11-20T02:59:10;96340.81;;;2.21;25.73
32761;BME280;19126;47.472;7.850;2022-11-20T03:01:37;96333.72;;;2.23;26.11
32761;BME280;19126;47.472;7.850;2022-11-20T03:04:04;96331.13;;;2.23;25.26
32761;BME280;19126;47.472;7.850;2022-11-20T03:06:32;96329.22;;;2.25;24.12
32761;BME280;19126;47.472;7.850;2022-11-20T03:08:59;96331.69;;;2.27;24.97
32761;BME280;19126;47.472;7.850;2022-11-20T03:11:27;96322.84;;;2.29;24.69
32761;BME280;19126;47.472;7.850;2022-11-20T03:13:56;96332.00;;;2.33;23.41
32761;BME280;19126;47.472;7.850;2022-11-20T03:16:23;96343.75;;;2.38;23.19
32761;BME280;19126;47.472;7.850;2022-11-20T03:18:52;96343.34;;;2.42;22.24
32761;BME280;19126;47.472;7.850;2022-11-20T03:21:20;96342.28;;;2.45;21.83
32761;BME280;19126;47.472;7.850;2022-11-20T03:23:47;96342.97;;;2.47;22.32
32761;BME280;19126;47.472;7.850;2022-11-20T03:26:17;96335.31;;;2.45;21.16
32761;BME280;19126;47.472;7.850;2022-11-20T03:28:48;96336.13;;;2.46;21.08
32761;BME280;19126;47.472;7.850;2022-11-20T03:31:19;96342.28;;;2.45;21.23
32761;BME280;19126;47.472;7.850;2022-11-20T03:33:47;96339.69;;;2.45;21.60
32761;BME280;19126;47.472;7.850;2022-11-20T03:36:16;96334.88;;;2.40;21.84
32761;BME280;19126;47.472;7.850;2022-11-20T03:38:44;96336.22;;;2.34;21.05
32761;BME280;19126;47.472;7.850;2022-11-20T03:41:15;96334.00;;;2.30;22.28
32761;BME280;19126;47.472;7.850;2022-11-20T03:43:47;96335.47;;;2.23;21.84
32761;BME280;19126;47.472;7.850;2022-11-20T03:46:14;96342.00;;;2.17;23.64
32761;BME280;19126;47.472;7.850;2022-11-20T03:48:44;96349.22;;;2.13;23.20
32761;BME280;19126;47.472;7.850;2022-11-20T03:51:14;96338.66;;;2.05;23.57
32761;BME280;19126;47.472;7.850;2022-11-20T03:53:44;96342.72;;;1.98;24.35
32761;BME280;19126;47.472;7.850;2022-11-20T03:56:14;96342.84;;;1.96;25.17
32761;BME280;19126;47.472;7.850;2022-11-20T03:58:43;96343.81;;;1.95;25.37
32761;BME280;19126;47.472;7.850;2022-11-20T04:01:13;96345.56;;;1.95;23.99
32761;BME280;19126;47.472;7.850;2022-11-20T04:03:44;96349.09;;;1.94;24.66
32761;BME280;19126;47.472;7.850;2022-11-20T04:06:14;96345.69;;;1.93;24.03
32761;BME280;19126;47.472;7.850;2022-11-20T04:08:42;96342.00;;;1.96;24.48
32761;BME280;19126;47.472;7.850;2022-11-20T04:11:12;96347.88;;;1.98;24.33
32761;BME280;19126;47.472;7.850;2022-11-20T04:13:41;96345.31;;;1.98;23.97
32761;BME280;19126;47.472;7.850;2022-11-20T04:16:09;96346.69;;;2.02;23.99
32761;BME280;19126;47.472;7.850;2022-11-20T04:18:37;96344.34;;;1.99;23.06
32761;BME280;19126;47.472;7.850;2022-11-20T04:21:06;96353.50;;;2.03;23.49
32761;BME280;19126;47.472;7.850;2022-11-20T04:23:33;96343.97;;;2.03;23.21
32761;BME280;19126;47.472;7.850;2022-11-20T04:26:02;96338.38;;;1.98;23.19
32761;BME280;19126;47.472;7.850;2022-11-20T04:28:30;96348.34;;;2.03;22.30
32761;BME280;19126;47.472;7.850;2022-11-20T04:31:05;96350.81;;;2.04;22.55
32761;BME280;19126;47.472;7.850;2022-11-20T04:33:34;96359.38;;;2.05;21.92
32761;BME280;19126;47.472;7.850;2022-11-20T04:36:05;96361.03;;;2.06;22.05
32761;BME280;19126;47.472;7.850;2022-11-20T04:38:33;96354.78;;;2.09;21.51
32761;BME280;19126;47.472;7.850;2022-11-20T04:41:03;96356.28;;;2.11;20.97
32761;BME280;19126;47.472;7.850;2022-11-20T04:43:32;96365.69;;;2.12;20.22
32761;BME280;19126;47.472;7.850;2022-11-20T04:46:00;96363.69;;;2.16;20.56
32761;BME280;19126;47.472;7.850;2022-11-20T04:48:29;96374.59;;;2.19;20.12
32761;BME280;19126;47.472;7.850;2022-11-20T04:50:57;96373.81;;;2.19;20.06
32761;BME280;19126;47.472;7.850;2022-11-20T04:53:25;96369.84;;;2.25;19.98
32761;BME280;19126;47.472;7.850;2022-11-20T04:56:00;96368.81;;;2.27;19.40
32761;BME280;19126;47.472;7.850;2022-11-20T04:58:27;96369.34;;;2.31;18.54
32761;BME280;19126;47.472;7.850;2022-11-20T05:01:01;96366.13;;;2.39;18.96
32761;BME280;19126;47.472;7.850;2022-11-20T05:03:30;96369.16;;;2.44;18.18
32761;BME280;19126;47.472;7.850;2022-11-20T05:06:00;96366.84;;;2.51;17.42
32761;BME280;19126;47.472;7.850;2022-11-20T05:08:30;96360.88;;;2.60;17.47
32761;BME280;19126;47.472;7.850;2022-11-20T05:11:01;96359.44;;;2.67;17.82
32761;BME280;19126;47.472;7.850;2022-11-20T05:13:28;96360.41;;;2.76;17.29
32761;BME280;19126;47.472;7.850;2022-11-20T05:16:00;96355.63;;;2.81;17.08
32761;BME280;19126;47.472;7.850;2022-11-20T05:18:28;96352.66;;;2.86;16.56
32761;BME280;19126;47.472;7.850;2022-11-20T05:20:55;96353.19;;;2.89;17.57
32761;BME280;19126;47.472;7.850;2022-11-20T05:23:23;96356.50;;;2.91;17.42
32761;BME280;19126;47.472;7.850;2022-11-20T05:25:54;96347.75;;;2.92;17.42
32761;BME280;19126;47.472;7.850;2022-11-20T05:28:22;96356.50;;;2.91;17.34
32761;BME280;19126;47.472;7.850;2022-11-20T05:30:50;96358.53;;;2.88;17.07
32761;BME280;19126;47.472;7.850;2022-11-20T05:33:18;96354.41;;;2.85;17.71
32761;BME280;19126;47.472;7.850;2022-11-20T05:35:45;96357.00;;;2.85;17.00
32761;BME280;19126;47.472;7.850;2022-11-20T05:38:13;96352.94;;;2.83;17.71
32761;BME280;19126;47.472;7.850;2022-11-20T05:40:41;96362.19;;;2.85;17.42
32761;BME280;19126;47.472;7.850;2022-11-20T05:43:09;96356.06;;;2.86;18.04
32761;BME280;19126;47.472;7.850;2022-11-20T05:45:37;96358.66;;;2.86;17.58
32761;BME280;19126;47.472;7.850;2022-11-20T05:48:04;96357.97;;;2.84;17.87
32761;BME280;19126;47.472;7.850;2022-11-20T05:50:31;96357.69;;;2.87;17.77
32761;BME280;19126;47.472;7.850;2022-11-20T05:52:59;96359.34;;;2.88;17.13
32761;BME280;19126;47.472;7.850;2022-11-20T05:55:27;96363.59;;;2.89;16.63
32761;BME280;19126;47.472;7.850;2022-11-20T05:57:55;96361.81;;;2.90;17.43
32761;BME280;19126;47.472;7.850;2022-11-20T06:00:23;96363.47;;;2.91;18.12
32761;BME280;19126;47.472;7.850;2022-11-20T06:02:50;96359.91;;;2.92;18.07
32761;BME280;19126;47.472;7.850;2022-11-20T06:05:18;96360.59;;;2.94;18.00
32761;BME280;19126;47.472;7.850;2022-11-20T06:07:45;96367.44;;;2.95;17.23
32761;BME280;19126;47.472;7.850;2022-11-20T06:10:12;96367.44;;;2.95;17.67
32761;BME280;19126;47.472;7.850;2022-11-20T06:12:39;96364.00;;;2.95;16.92
32761;BME280;19126;47.472;7.850;2022-11-20T06:15:08;96365.78;;;2.94;17.40
32761;BME280;19126;47.472;7.850;2022-11-20T06:17:37;96362.94;;;2.97;17.87
32761;BME280;19126;47.472;7.850;2022-11-20T06:20:06;96361.28;;;2.96;17.41
32761;BME280;19126;47.472;7.850;2022-11-20T06:22:33;96363.19;;;2.94;16.83
32761;BME280;19126;47.472;7.850;2022-11-20T06:25:00;96362.09;;;2.97;17.15
32761;BME280;19126;47.472;7.850;2022-11-20T06:27:27;96366.47;;;2.96;17.55
32761;BME280;19126;47.472;7.850;2022-11-20T06:29:54;96362.78;;;2.99;17.25
32761;BME280;19126;47.472;7.850;2022-11-20T06:32:22;96362.94;;;2.97;16.84
32761;BME280;19126;47.472;7.850;2022-11-20T06:34:50;96370.31;;;3.02;17.30
32761;BME280;19126;47.472;7.850;2022-11-20T06:37:18;96368.53;;;3.02;17.21
32761;BME280;19126;47.472;7.850;2022-11-20T06:39:45;96370.44;;;3.00;16.90
32761;BME280;19126;47.472;7.850;2022-11-20T06:42:12;96367.72;;;3.02;16.68
32761;BME280;19126;47.472;7.850;2022-11-20T06:44:39;96373.72;;;3.02;17.12
32761;BME280;19126;47.472;7.850;2022-11-20T06:47:06;96367.59;;;3.03;16.82
32761;BME280;19126;47.472;7.850;2022-11-20T06:49:34;96372.78;;;3.03;16.62
32761;BME280;19126;47.472;7.850;2022-11-20T06:52:04;96366.91;;;3.01;16.60
32761;BME280;19126;47.472;7.850;2022-11-20T06:54:31;96365.38;;;2.99;16.56
32761;BME280;19126;47.472;7.850;2022-11-20T06:56:59;96376.59;;;2.99;16.89
32761;BME280;19126;47.472;7.850;2022-11-20T06:59:26;96375.75;;;2.99;16.10
32761;BME280;19126;47.472;7.850;2022-11-20T07:01:53;96378.09;;;3.02;15.92
32761;BME280;19126;47.472;7.850;2022-11-20T07:04:20;96374.53;;;3.03;17.35
32761;BME280;19126;47.472;7.850;2022-11-20T07:06:48;96377.97;;;3.03;16.79
32761;BME280;19126;47.472;7.850;2022-11-20T07:09:17;96380.31;;;3.06;16.45
32761;BME280;19126;47.472;7.850;2022-11-20T07:11:44;96385.22;;;3.10;16.15
32761;BME280;19126;47.472;7.850;2022-11-20T07:14:12;96389.88;;;3.16;16.12
32761;BME280;19126;47.472;7.850;2022-11-20T07:16:39;96383.84;;;3.15;15.66
32761;BME280;19126;47.472;7.850;2022-11-20T07:19:06;96385.38;;;3.28;16.38
32761;BME280;19126;47.472;7.850;2022-11-20T07:21:33;96379.53;;;3.35;16.03
32761;BME280;19126;47.472;7.850;2022-11-20T07:24:00;96385.13;;;3.41;16.34
32761;BME280;19126;47.472;7.850;2022-11-20T07:26:29;96386.34;;;3.46;15.86
32761;BME280;19126;47.472;7.850;2022-11-20T07:28:58;96393.75;;;3.51;16.02
32761;BME280;19126;47.472;7.850;2022-11-20T07:31:25;96396.38;;;3.71;16.36
32761;BME280;19126;47.472;7.850;2022-11-20T07:33:53;96395.66;;;4.08;15.56
32761;BME280;19126;47.472;7.850;2022-11-20T07:36:20;96394.19;;;4.53;15.53
32761;BME280;19126;47.472;7.850;2022-11-20T07:38:48;96386.44;;;5.09;15.31
32761;BME280;19126;47.472;7.850;2022-11-20T07:41:16;96394.88;;;5.39;15.90
32761;BME280;19126;47.472;7.850;2022-11-20T07:43:45;96396.25;;;5.79;16.64
32761;BME280;19126;47.472;7.850;2022-11-20T07:46:12;96389.31;;;5.70;23.05
32761;BME280;19126;47.472;7.850;2022-11-20T07:48:40;96397.59;;;5.65;31.58
32761;BME280;19126;47.472;7.850;2022-11-20T07:51:07;96395.00;;;5.65;36.23
32761;BME280;19126;47.472;7.850;2022-11-20T07:53:35;96394.97;;;5.47;54.95
32761;BME280;19126;47.472;7.850;2022-11-20T07:56:03;96399.22;;;5.48;67.35
32761;BME280;19126;47.472;7.850;2022-11-20T07:58:31;96392.75;;;5.34;75.27
32761;BME280;19126;47.472;7.850;2022-11-20T08:01:04;96392.44;;;5.37;85.38
32761;BME280;19126;47.472;7.850;2022-11-20T08:03:32;96390.50;;;5.39;92.11
32761;BME280;19126;47.472;7.850;2022-11-20T08:06:00;96380.81;;;5.32;96.45
32761;BME280;19126;47.472;7.850;2022-11-20T08:08:29;96387.53;;;5.34;100.00
32761;BME280;19126;47.472;7.850;2022-11-20T08:10:57;96392.56;;;5.36;100.00
32761;BME280;19126;47.472;7.850;2022-11-20T08:13:46;96393.53;;;5.35;100.00
32761;BME280;19126;47.472;7.850;2022-11-20T08:16:33;96396.97;;;5.35;100.00
32761;BME280;19126;47.472;7.850;2022-11-20T08:19:01;96400.09;;;5.39;100.00
32761;BME280;19126;47.472;7.850;2022-11-20T08:21:28;96405.31;;;5.39;100.00
32761;BME280;19126;47.472;7.850;2022-11-20T08:23:55;96404.03;;;5.43;100.00
32761;BME280;19126;47.472;7.850;2022-11-20T08:26:24;96413.88;;;5.49;100.00
32761;BME280;19126;47.472;7.850;2022-11-20T08:28:54;96410.75;;;5.46;100.00
32761;BME280;19126;47.472;7.850;2022-11-20T08:31:22;96410.31;;;5.50;100.00
32761;BME280;19126;47.472;7.850;2022-11-20T08:33:51;96417.63;;;5.47;100.00
32761;BME280;19126;47.472;7.850;2022-11-20T08:36:20;96418.41;;;5.47;100.00
32761;BME280;19126;47.472;7.850;2022-11-20T08:38:48;96425.44;;;5.47;100.00
32761;BME280;19126;47.472;7.850;2022-11-20T08:41:15;96424.59;;;5.46;100.00
32761;BME280;19126;47.472;7.850;2022-11-20T08:44:06;96421.19;;;5.46;100.00
32761;BME280;19126;47.472;7.850;2022-11-20T08:46:36;96423.50;;;5.49;100.00
32761;BME280;19126;47.472;7.850;2022-11-20T08:49:09;96426.09;;;5.49;100.00
32761;BME280;19126;47.472;7.850;2022-11-20T08:51:38;96420.94;;;5.39;100.00
32761;BME280;19126;47.472;7.850;2022-11-20T08:54:06;96424.47;;;5.48;100.00
32761;BME280;19126;47.472;7.850;2022-11-20T08:56:34;96428.13;;;5.55;100.00
32761;BME280;19126;47.472;7.850;2022-11-20T08:59:03;96431.53;;;5.55;100.00
32761;BME280;19126;47.472;7.850;2022-11-20T09:01:30;96437.13;;;5.61;100.00
32761;BME280;19126;47.472;7.850;2022-11-20T09:03:57;96431.78;;;5.62;100.00
32761;BME280;19126;47.472;7.850;2022-11-20T09:06:27;96438.63;;;5.63;100.00
32761;BME280;19126;47.472;7.850;2022-11-20T09:08:55;96436.16;;;5.62;100.00
32761;BME280;19126;47.472;7.850;2022-11-20T09:11:23;96435.84;;;5.65;100.00
32761;BME280;19126;47.472;7.850;2022-11-20T09:13:51;96436.97;;;5.62;100.00
32761;BME280;19126;47.472;7.850;2022-11-20T09:16:18;96434.47;;;5.70;100.00
32761;BME280;19126;47.472;7.850;2022-11-20T09:18:45;96436.91;;;5.72;100.00
32761;BME280;19126;47.472;7.850;2022-11-20T09:21:13;96434.25;;;5.82;100.00
32761;BME280;19126;47.472;7.850;2022-11-20T09:23:42;96435.56;;;5.86;100.00
32761;BME280;19126;47.472;7.850;2022-11-20T09:26:11;96439.44;;;5.82;100.00
32761;BME280;19126;47.472;7.850;2022-11-20T09:28:39;96437.50;;;5.84;100.00
32761;BME280;19126;47.472;7.850;2022-11-20T09:31:07;96439.72;;;5.97;100.00
32761;BME280;19126;47.472;7.850;2022-11-20T09:33:35;96446.69;;;6.06;100.00
32761;BME280;19126;47.472;7.850;2022-11-20T09:36:03;96446.84;;;6.05;100.00
32761;BME280;19126;47.472;7.850;2022-11-20T09:38:30;96446.84;;;6.05;100.00
32761;BME280;19126;47.472;7.850;2022-11-20T09:41:04;96451.91;;;6.06;100.00
32761;BME280;19126;47.472;7.850;2022-11-20T09:43:49;96444.38;;;6.03;100.00
32761;BME280;19126;47.472;7.850;2022-11-20T09:46:26;96445.28;;;6.12;100.00
32761;BME280;19126;47.472;7.850;2022-11-20T09:49:09;96448.56;;;6.14;100.00
32761;BME280;19126;47.472;7.850;2022-11-20T09:51:57;96444.00;;;6.16;100.00
32761;BME280;19126;47.472;7.850;2022-11-20T09:54:30;96437.53;;;6.20;100.00
32761;BME280;19126;47.472;7.850;2022-11-20T09:57:03;96442.81;;;6.28;100.00
32761;BME280;19126;47.472;7.850;2022-11-20T09:59:40;96429.91;;;6.27;100.00
32761;BME280;19126;47.472;7.850;2022-11-20T10:02:17;96442.25;;;6.43;100.00
32761;BME280;19126;47.472;7.850;2022-11-20T10:04:59;96434.53;;;6.59;100.00
32761;BME280;19126;47.472;7.850;2022-11-20T10:07:34;96439.97;;;6.66;100.00
32761;BME280;19126;47.472;7.850;2022-11-20T10:10:04;96445.72;;;6.78;100.00
32761;BME280;19126;47.472;7.850;2022-11-20T10:12:41;96440.50;;;6.78;100.00
32761;BME280;19126;47.472;7.850;2022-11-20T10:15:27;96439.63;;;6.96;100.00
32761;BME280;19126;47.472;7.850;2022-11-20T10:18:20;96439.69;;;7.12;100.00
32761;BME280;19126;47.472;7.850;2022-11-20T10:21:00;96435.16;;;7.23;100.00
32761;BME280;19126;47.472;7.850;2022-11-20T10:23:53;96444.81;;;7.22;100.00
32761;BME280;19126;47.472;7.850;2022-11-20T10:26:34;96434.50;;;7.21;100.00
32761;BME280;19126;47.472;7.850;2022-11-20T10:29:12;96435.47;;;7.19;100.00
32761;BME280;19126;47.472;7.850;2022-11-20T10:31:42;96434.34;;;7.14;100.00
32761;BME280;19126;47.472;7.850;2022-11-20T10:34:23;96429.16;;;7.30;100.00
32761;BME280;19126;47.472;7.850;2022-11-20T10:36:58;96424.97;;;7.46;100.00
32761;BME280;19126;47.472;7.850;2022-11-20T10:39:35;96428.75;;;7.60;100.00
32761;BME280;19126;47.472;7.850;2022-11-20T10:42:10;96429.91;;;7.57;100.00
32761;BME280;19126;47.472;7.850;2022-11-20T10:44:42;96425.31;;;7.59;100.00
32761;BME280;19126;47.472;7.850;2022-11-20T10:47:31;96420.09;;;7.59;100.00
32761;BME280;19126;47.472;7.850;2022-11-20T10:50:03;96426.66;;;7.72;100.00
32761;BME280;19126;47.472;7.850;2022-11-20T10:52:41;96420.59;;;7.71;100.00
32761;BME280;19126;47.472;7.850;2022-11-20T10:55:25;96417.31;;;7.69;100.00
32761;BME280;19126;47.472;7.850;2022-11-20T10:58:08;96411.94;;;7.71;100.00
32761;BME280;19126;47.472;7.850;2022-11-20T11:00:38;96406.72;;;7.71;100.00
32761;BME280;19126;47.472;7.850;2022-11-20T11:03:25;96407.66;;;7.53;97.99
32761;BME280;19126;47.472;7.850;2022-11-20T11:05:58;96403.88;;;7.47;100.00
32761;BME280;19126;47.472;7.850;2022-11-20T11:08:35;96402.09;;;7.48;100.00
32761;BME280;19126;47.472;7.850;2022-11-20T11:11:17;96399.78;;;7.37;100.00
32761;BME280;19126;47.472;7.850;2022-11-20T11:13:45;96396.34;;;7.36;100.00
32761;BME280;19126;47.472;7.850;2022-11-20T11:16:21;96388.47;;;7.19;100.00
32761;BME280;19126;47.472;7.850;2022-11-20T11:18:49;96392.03;;;7.10;100.00
32761;BME280;19126;47.472;7.850;2022-11-20T11:21:23;96386.00;;;7.10;100.00
32761;BME280;19126;47.472;7.850;2022-11-20T11:24:00;96384.16;;;7.02;100.00
32761;BME280;19126;47.472;7.850;2022-11-20T11:26:28;96372.69;;;6.95;100.00
32761;BME280;19126;47.472;7.850;2022-11-20T11:28:56;96371.69;;;6.87;100.00
32761;BME280;19126;47.472;7.850;2022-11-20T11:31:28;96369.72;;;6.81;100.00
32761;BME280;19126;47.472;7.850;2022-11-20T11:34:04;96372.97;;;6.83;100.00
32761;BME280;19126;47.472;7.850;2022-11-20T11:36:34;96362.84;;;6.80;100.00
32761;BME280;19126;47.472;7.850;2022-11-20T11:39:04;96358.91;;;6.76;100.00
32761;BME280;19126;47.472;7.850;2022-11-20T11:41:33;96361.38;;;6.78;100.00
32761;BME280;19126;47.472;7.850;2022-11-20T11:44:15;96350.47;;;6.82;100.00
32761;BME280;19126;47.472;7.850;2022-11-20T11:47:04;96351.63;;;6.88;100.00
32761;BME280;19126;47.472;7.850;2022-11-20T11:49:33;96343.50;;;6.91;100.00
32761;BME280;19126;47.472;7.850;2022-11-20T11:52:08;96344.31;;;7.00;100.00
32761;BME280;19126;47.472;7.850;2022-11-20T11:54:45;96339.91;;;6.92;100.00
32761;BME280;19126;47.472;7.850;2022-11-20T11:57:22;96339.78;;;7.10;100.00
32761;BME280;19126;47.472;7.850;2022-11-20T12:00:02;96332.97;;;7.34;100.00
32761;BME280;19126;47.472;7.850;2022-11-20T12:02:36;96318.28;;;7.58;100.00
32761;BME280;19126;47.472;7.850;2022-11-20T12:05:17;96310.78;;;7.55;100.00
32761;BME280;19126;47.472;7.850;2022-11-20T12:07:49;96316.00;;;7.63;100.00
32761;BME280;19126;47.472;7.850;2022-11-20T12:10:22;96302.78;;;7.65;100.00
32761;BME280;19126;47.472;7.850;2022-11-20T12:12:54;96300.81;;;7.75;100.00
32761;BME280;19126;47.472;7.850;2022-11-20T12:15:29;96290.84;;;7.70;100.00
32761;BME280;19126;47.472;7.850;2022-11-20T12:17:59;96287.56;;;7.85;100.00
32761;BME280;19126;47.472;7.850;2022-11-20T12:20:32;96285.63;;;7.78;100.00
32761;BME280;19126;47.472;7.850;2022-11-20T12:23:07;96281.81;;;8.06;100.00
32761;BME280;19126;47.472;7.850;2022-11-20T12:25:37;96274.75;;;8.31;100.00
32761;BME280;19126;47.472;7.850;2022-11-20T12:28:37;96280.31;;;8.28;100.00
32761;BME280;19126;47.472;7.850;2022-11-20T12:34:20;96276.81;;;8.44;100.00
32761;BME280;19126;47.472;7.850;2022-11-20T12:36:58;96271.72;;;8.59;99.20
32761;BME280;19126;47.472;7.850;2022-11-20T12:39:35;96270.25;;;8.48;97.92
32761;BME280;19126;47.472;7.850;2022-11-20T12:42:23;96274.00;;;8.62;98.80
32761;BME280;19126;47.472;7.850;2022-11-20T12:52:12;96270.44;;;8.87;98.43
32761;BME280;19126;47.472;7.850;2022-11-20T12:55:08;96276.91;;;8.76;99.31
32761;BME280;19126;47.472;7.850;2022-11-20T12:57:48;96285.56;;;8.76;99.63
32761;BME280;19126;47.472;7.850;2022-11-20T13:00:19;96279.03;;;8.72;98.79
32761;BME280;19126;47.472;7.850;2022-11-20T13:03:41;96273.75;;;8.49;99.17
32761;BME280;19126;47.472;7.850;2022-11-20T13:06:15;96280.78;;;8.32;99.89
32761;BME280;19126;47.472;7.850;2022-11-20T13:08:50;96276.44;;;8.16;100.00
32761;BME280;19126;47.472;7.850;2022-11-20T13:11:24;96274.97;;;8.05;100.00
32761;BME280;19126;47.472;7.850;2022-11-20T13:14:11;96279.56;;;7.95;100.00
32761;BME280;19126;47.472;7.850;2022-11-20T13:16:48;96273.19;;;8.05;100.00
32761;BME280;19126;47.472;7.850;2022-11-20T13:19:18;96261.38;;;8.18;100.00
32761;BME280;19126;47.472;7.850;2022-11-20T13:21:47;96257.75;;;8.27;100.00
32761;BME280;19126;47.472;7.850;2022-11-20T13:24:26;96246.31;;;8.20;100.00
32761;BME280;19126;47.472;7.850;2022-11-20T13:27:04;96242.22;;;8.17;99.63
32761;BME280;19126;47.472;7.850;2022-11-20T13:29:33;96245.38;;;8.13;98.35
32761;BME280;19126;47.472;7.850;2022-11-20T13:32:06;96238.16;;;8.15;98.77
32761;BME280;19126;47.472;7.850;2022-11-20T13:34:34;96234.34;;;8.26;98.28
32761;BME280;19126;47.472;7.850;2022-11-20T13:37:02;96223.75;;;8.19;98.50
32761;BME280;19126;47.472;7.850;2022-11-20T13:39:33;96227.69;;;8.15;96.28